sensor_id;sensor_type;location;lat;lon;timestamp;P1;durP1;ratioP1;P2;durP2;ratioP2
72087;SDS011;59961;50.232;8.616;2022-12-11T00:01:19;10.23;;;4.75;;
72087;SDS011;59961;50.232;8.616;2022-12-11T00:03:44;17.08;;;7.30;;
72087;SDS011;59961;50.232;8.616;2022-12-11T00:06:11;10.70;;;4.63;;
72087;SDS011;59961;50.232;8.616;2022-12-11T00:08:37;8.38;;;3.35;;
72087;SDS011;59961;50.232;8.616;2022-12-11T00:11:02;7.27;;;2.73;;
72087;SDS011;59961;50.232;8.616;2022-12-11T00:13:27;10.03;;;3.60;;
72087;SDS011;59961;50.232;8.616;2022-12-11T00:15:52;9.37;;;3.57;;
72087;SDS011;59961;50.232;8.616;2022-12-11T00:18:18;7.20;;;3.03;;
72087;SDS011;59961;50.232;8.616;2022-12-11T00:20:43;6.27;;;2.57;;
72087;SDS011;59961;50.232;8.616;2022-12-11T00:23:08;7.43;;;2.83;;
72087;SDS011;59961;50.232;8.616;2022-12-11T00:25:34;6.88;;;2.90;;
72087;SDS011;59961;50.232;8.616;2022-12-11T00:27:59;8.33;;;3.23;;
72087;SDS011;59961;50.232;8.616;2022-12-11T00:30:25;5.63;;;2.80;;
72087;SDS011;59961;50.232;8.616;2022-12-11T00:32:50;6.50;;;3.17;;
72087;SDS011;59961;50.232;8.616;2022-12-11T00:35:15;7.10;;;3.20;;
72087;SDS011;59961;50.232;8.616;2022-12-11T00:37:40;7.97;;;3.50;;
72087;SDS011;59961;50.232;8.616;2022-12-11T00:40:06;16.30;;;6.57;;
72087;SDS011;59961;50.232;8.616;2022-12-11T00:42:31;8.33;;;3.03;;
72087;SDS011;59961;50.232;8.616;2022-12-11T00:44:56;6.97;;;3.22;;
72087;SDS011;59961;50.232;8.616;2022-12-11T00:47:21;7.00;;;3.25;;
72087;SDS011;59961;50.232;8.616;2022-12-11T00:49:47;7.00;;;2.93;;
72087;SDS011;59961;50.232;8.616;2022-12-11T00:52:12;7.97;;;2.90;;
72087;SDS011;59961;50.232;8.616;2022-12-11T00:54:37;8.13;;;3.00;;
72087;SDS011;59961;50.232;8.616;2022-12-11T00:57:02;7.22;;;2.55;;
72087;SDS011;59961;50.232;8.616;2022-12-11T00:59:27;7.67;;;3.20;;
72087;SDS011;59961;50.232;8.616;2022-12-11T01:01:53;8.20;;;2.90;;
72087;SDS011;59961;50.232;8.616;2022-12-11T01:04:18;6.53;;;2.88;;
72087;SDS011;59961;50.232;8.616;2022-12-11T01:06:43;19.17;;;8.23;;
72087;SDS011;59961;50.232;8.616;2022-12-11T01:09:08;8.43;;;3.13;;
72087;SDS011;59961;50.232;8.616;2022-12-11T01:11:52;19.75;;;8.27;;
72087;SDS011;59961;50.232;8.616;2022-12-11T01:14:17;8.57;;;3.70;;
72087;SDS011;59961;50.232;8.616;2022-12-11T01:16:42;6.43;;;2.77;;
72087;SDS011;59961;50.232;8.616;2022-12-11T01:19:08;6.47;;;2.90;;
72087;SDS011;59961;50.232;8.616;2022-12-11T01:21:33;6.55;;;2.80;;
72087;SDS011;59961;50.232;8.616;2022-12-11T01:23:58;11.53;;;3.33;;
72087;SDS011;59961;50.232;8.616;2022-12-11T01:26:23;16.57;;;8.03;;
72087;SDS011;59961;50.232;8.616;2022-12-11T01:28:49;9.70;;;4.60;;
72087;SDS011;59961;50.232;8.616;2022-12-11T01:31:15;18.88;;;10.07;;
72087;SDS011;59961;50.232;8.616;2022-12-11T01:33:41;9.88;;;4.40;;
72087;SDS011;59961;50.232;8.616;2022-12-11T01:36:08;12.57;;;5.20;;
72087;SDS011;59961;50.232;8.616;2022-12-11T01:38:33;17.73;;;8.27;;
72087;SDS011;59961;50.232;8.616;2022-12-11T01:40:58;8.77;;;4.43;;
72087;SDS011;59961;50.232;8.616;2022-12-11T01:43:23;7.70;;;3.55;;
72087;SDS011;59961;50.232;8.616;2022-12-11T01:45:48;7.68;;;2.78;;
72087;SDS011;59961;50.232;8.616;2022-12-11T01:48:18;6.47;;;3.30;;
72087;SDS011;59961;50.232;8.616;2022-12-11T01:50:54;7.90;;;2.63;;
72087;SDS011;59961;50.232;8.616;2022-12-11T01:53:22;19.38;;;9.43;;
72087;SDS011;59961;50.232;8.616;2022-12-11T01:55:48;8.57;;;3.40;;
72087;SDS011;59961;50.232;8.616;2022-12-11T01:58:15;6.65;;;2.85;;
72087;SDS011;59961;50.232;8.616;2022-12-11T02:00:41;7.78;;;3.00;;
72087;SDS011;59961;50.232;8.616;2022-12-11T02:03:06;6.57;;;3.15;;
72087;SDS011;59961;50.232;8.616;2022-12-11T02:05:32;6.80;;;3.28;;
72087;SDS011;59961;50.232;8.616;2022-12-11T02:07:57;6.63;;;3.20;;
72087;SDS011;59961;50.232;8.616;2022-12-11T02:10:26;6.50;;;2.70;;
72087;SDS011;59961;50.232;8.616;2022-12-11T02:12:53;5.90;;;2.83;;
72087;SDS011;59961;50.232;8.616;2022-12-11T02:15:30;9.48;;;4.28;;
72087;SDS011;59961;50.232;8.616;2022-12-11T02:23:13;7.77;;;3.37;;
72087;SDS011;59961;50.232;8.616;2022-12-11T02:30:58;7.68;;;3.33;;
72087;SDS011;59961;50.232;8.616;2022-12-11T02:33:29;7.07;;;3.10;;
72087;SDS011;59961;50.232;8.616;2022-12-11T02:35:57;6.90;;;3.20;;
72087;SDS011;59961;50.232;8.616;2022-12-11T02:38:24;6.72;;;3.40;;
72087;SDS011;59961;50.232;8.616;2022-12-11T02:40:51;6.55;;;3.03;;
72087;SDS011;59961;50.232;8.616;2022-12-11T02:43:16;6.47;;;2.80;;
72087;SDS011;59961;50.232;8.616;2022-12-11T02:45:42;7.43;;;3.10;;
72087;SDS011;59961;50.232;8.616;2022-12-11T02:48:08;6.93;;;3.20;;
72087;SDS011;59961;50.232;8.616;2022-12-11T02:50:35;12.90;;;6.38;;
72087;SDS011;59961;50.232;8.616;2022-12-11T02:53:02;6.40;;;2.73;;
72087;SDS011;59961;50.232;8.616;2022-12-11T02:55:28;7.18;;;3.15;;
72087;SDS011;59961;50.232;8.616;2022-12-11T02:58:01;7.72;;;3.85;;
72087;SDS011;59961;50.232;8.616;2022-12-11T03:00:28;7.38;;;3.05;;
72087;SDS011;59961;50.232;8.616;2022-12-11T03:02:53;7.53;;;3.03;;
72087;SDS011;59961;50.232;8.616;2022-12-11T03:05:18;10.63;;;4.87;;
72087;SDS011;59961;50.232;8.616;2022-12-11T03:07:43;7.63;;;2.93;;
72087;SDS011;59961;50.232;8.616;2022-12-11T03:10:10;13.13;;;6.13;;
72087;SDS011;59961;50.232;8.616;2022-12-11T03:12:36;20.52;;;8.57;;
72087;SDS011;59961;50.232;8.616;2022-12-11T03:15:04;8.07;;;3.25;;
72087;SDS011;59961;50.232;8.616;2022-12-11T03:17:32;6.73;;;3.13;;
72087;SDS011;59961;50.232;8.616;2022-12-11T03:25:01;6.47;;;3.00;;
72087;SDS011;59961;50.232;8.616;2022-12-11T03:29:53;6.18;;;3.00;;
72087;SDS011;59961;50.232;8.616;2022-12-11T03:32:20;8.43;;;3.40;;
72087;SDS011;59961;50.232;8.616;2022-12-11T03:34:50;6.47;;;3.28;;
72087;SDS011;59961;50.232;8.616;2022-12-11T03:37:16;16.40;;;7.95;;
72087;SDS011;59961;50.232;8.616;2022-12-11T03:39:44;8.88;;;4.18;;
72087;SDS011;59961;50.232;8.616;2022-12-11T03:42:11;6.20;;;2.90;;
72087;SDS011;59961;50.232;8.616;2022-12-11T03:44:37;6.33;;;2.83;;
72087;SDS011;59961;50.232;8.616;2022-12-11T03:47:04;8.60;;;4.07;;
72087;SDS011;59961;50.232;8.616;2022-12-11T03:49:32;24.33;;;11.47;;
72087;SDS011;59961;50.232;8.616;2022-12-11T03:51:58;23.15;;;11.15;;
72087;SDS011;59961;50.232;8.616;2022-12-11T03:54:24;21.90;;;10.82;;
72087;SDS011;59961;50.232;8.616;2022-12-11T03:56:50;24.83;;;12.70;;
72087;SDS011;59961;50.232;8.616;2022-12-11T03:59:18;23.63;;;10.98;;
72087;SDS011;59961;50.232;8.616;2022-12-11T04:01:43;24.57;;;11.47;;
72087;SDS011;59961;50.232;8.616;2022-12-11T04:04:08;23.98;;;11.10;;
72087;SDS011;59961;50.232;8.616;2022-12-11T04:06:33;22.75;;;10.88;;
72087;SDS011;59961;50.232;8.616;2022-12-11T04:08:58;21.95;;;10.45;;
72087;SDS011;59961;50.232;8.616;2022-12-11T04:11:23;24.07;;;10.97;;
72087;SDS011;59961;50.232;8.616;2022-12-11T04:14:02;21.85;;;10.18;;
72087;SDS011;59961;50.232;8.616;2022-12-11T04:16:46;21.83;;;10.77;;
72087;SDS011;59961;50.232;8.616;2022-12-11T04:19:11;23.70;;;10.50;;
72087;SDS011;59961;50.232;8.616;2022-12-11T04:21:55;24.83;;;10.87;;
72087;SDS011;59961;50.232;8.616;2022-12-11T04:24:38;20.63;;;9.52;;
72087;SDS011;59961;50.232;8.616;2022-12-11T04:27:03;22.60;;;10.68;;
72087;SDS011;59961;50.232;8.616;2022-12-11T04:29:28;27.42;;;11.32;;
72087;SDS011;59961;50.232;8.616;2022-12-11T04:31:53;24.55;;;10.57;;
72087;SDS011;59961;50.232;8.616;2022-12-11T04:34:19;23.27;;;10.23;;
72087;SDS011;59961;50.232;8.616;2022-12-11T04:36:44;22.77;;;11.13;;
72087;SDS011;59961;50.232;8.616;2022-12-11T04:39:09;25.77;;;10.63;;
72087;SDS011;59961;50.232;8.616;2022-12-11T04:41:34;25.50;;;10.83;;
72087;SDS011;59961;50.232;8.616;2022-12-11T04:44:01;23.60;;;10.20;;
72087;SDS011;59961;50.232;8.616;2022-12-11T04:46:26;22.33;;;9.77;;
72087;SDS011;59961;50.232;8.616;2022-12-11T04:48:51;23.40;;;10.10;;
72087;SDS011;59961;50.232;8.616;2022-12-11T04:51:17;22.92;;;10.38;;
72087;SDS011;59961;50.232;8.616;2022-12-11T04:53:43;22.67;;;9.50;;
72087;SDS011;59961;50.232;8.616;2022-12-11T04:56:09;23.40;;;9.40;;
72087;SDS011;59961;50.232;8.616;2022-12-11T04:58:35;27.40;;;10.02;;
72087;SDS011;59961;50.232;8.616;2022-12-11T05:01:05;22.23;;;10.10;;
72087;SDS011;59961;50.232;8.616;2022-12-11T05:03:30;21.83;;;9.82;;
72087;SDS011;59961;50.232;8.616;2022-12-11T05:05:55;23.20;;;9.38;;
72087;SDS011;59961;50.232;8.616;2022-12-11T05:08:20;21.90;;;9.63;;
72087;SDS011;59961;50.232;8.616;2022-12-11T05:10:58;21.45;;;9.30;;
72087;SDS011;59961;50.232;8.616;2022-12-11T05:13:24;23.70;;;10.35;;
72087;SDS011;59961;50.232;8.616;2022-12-11T05:15:50;25.33;;;9.88;;
72087;SDS011;59961;50.232;8.616;2022-12-11T05:18:15;28.90;;;10.93;;
72087;SDS011;59961;50.232;8.616;2022-12-11T05:20:40;20.17;;;9.43;;
72087;SDS011;59961;50.232;8.616;2022-12-11T05:23:05;18.98;;;9.27;;
72087;SDS011;59961;50.232;8.616;2022-12-11T05:25:31;23.08;;;10.05;;
72087;SDS011;59961;50.232;8.616;2022-12-11T05:27:56;19.83;;;8.68;;
72087;SDS011;59961;50.232;8.616;2022-12-11T05:30:21;21.07;;;10.33;;
72087;SDS011;59961;50.232;8.616;2022-12-11T05:32:46;24.27;;;9.50;;
72087;SDS011;59961;50.232;8.616;2022-12-11T05:35:11;23.55;;;10.10;;
72087;SDS011;59961;50.232;8.616;2022-12-11T05:37:36;23.30;;;10.88;;
72087;SDS011;59961;50.232;8.616;2022-12-11T05:40:02;24.65;;;9.57;;
72087;SDS011;59961;50.232;8.616;2022-12-11T05:42:28;24.93;;;10.77;;
72087;SDS011;59961;50.232;8.616;2022-12-11T05:44:53;23.52;;;10.07;;
72087;SDS011;59961;50.232;8.616;2022-12-11T05:47:18;25.02;;;10.70;;
72087;SDS011;59961;50.232;8.616;2022-12-11T05:49:44;23.38;;;10.27;;
72087;SDS011;59961;50.232;8.616;2022-12-11T05:52:11;23.35;;;10.30;;
72087;SDS011;59961;50.232;8.616;2022-12-11T05:54:36;24.13;;;10.10;;
72087;SDS011;59961;50.232;8.616;2022-12-11T05:57:01;24.23;;;9.67;;
72087;SDS011;59961;50.232;8.616;2022-12-11T05:59:26;20.90;;;9.13;;
72087;SDS011;59961;50.232;8.616;2022-12-11T06:01:51;21.00;;;10.10;;
72087;SDS011;59961;50.232;8.616;2022-12-11T06:04:17;23.77;;;10.10;;
72087;SDS011;59961;50.232;8.616;2022-12-11T06:06:42;25.63;;;10.70;;
72087;SDS011;59961;50.232;8.616;2022-12-11T06:09:10;23.73;;;10.18;;
72087;SDS011;59961;50.232;8.616;2022-12-11T06:11:36;25.67;;;9.63;;
72087;SDS011;59961;50.232;8.616;2022-12-11T06:14:02;23.38;;;9.93;;
72087;SDS011;59961;50.232;8.616;2022-12-11T06:16:27;24.03;;;10.30;;
72087;SDS011;59961;50.232;8.616;2022-12-11T06:18:52;28.47;;;10.47;;
72087;SDS011;59961;50.232;8.616;2022-12-11T06:21:23;22.27;;;9.90;;
72087;SDS011;59961;50.232;8.616;2022-12-11T06:23:50;21.70;;;9.75;;
72087;SDS011;59961;50.232;8.616;2022-12-11T06:26:15;20.40;;;9.48;;
72087;SDS011;59961;50.232;8.616;2022-12-11T06:28:40;26.07;;;10.40;;
72087;SDS011;59961;50.232;8.616;2022-12-11T06:31:06;23.60;;;9.77;;
72087;SDS011;59961;50.232;8.616;2022-12-11T06:33:31;23.77;;;10.40;;
72087;SDS011;59961;50.232;8.616;2022-12-11T06:36:04;29.33;;;12.13;;
72087;SDS011;59961;50.232;8.616;2022-12-11T06:38:29;23.73;;;9.60;;
72087;SDS011;59961;50.232;8.616;2022-12-11T06:40:55;26.70;;;10.27;;
72087;SDS011;59961;50.232;8.616;2022-12-11T06:43:20;25.60;;;10.17;;
72087;SDS011;59961;50.232;8.616;2022-12-11T06:45:46;20.95;;;10.00;;
72087;SDS011;59961;50.232;8.616;2022-12-11T06:48:11;24.27;;;10.37;;
72087;SDS011;59961;50.232;8.616;2022-12-11T06:50:36;25.98;;;10.27;;
72087;SDS011;59961;50.232;8.616;2022-12-11T06:53:01;27.63;;;10.07;;
72087;SDS011;59961;50.232;8.616;2022-12-11T06:55:27;23.93;;;10.00;;
72087;SDS011;59961;50.232;8.616;2022-12-11T06:57:52;24.63;;;10.63;;
72087;SDS011;59961;50.232;8.616;2022-12-11T07:00:17;29.83;;;10.87;;
72087;SDS011;59961;50.232;8.616;2022-12-11T07:02:43;26.23;;;10.73;;
72087;SDS011;59961;50.232;8.616;2022-12-11T07:05:08;24.90;;;11.00;;
72087;SDS011;59961;50.232;8.616;2022-12-11T07:07:33;27.23;;;11.03;;
72087;SDS011;59961;50.232;8.616;2022-12-11T07:09:58;27.03;;;10.90;;
72087;SDS011;59961;50.232;8.616;2022-12-11T07:12:23;25.67;;;10.90;;
72087;SDS011;59961;50.232;8.616;2022-12-11T07:14:48;22.38;;;8.57;;
72087;SDS011;59961;50.232;8.616;2022-12-11T07:17:14;27.83;;;10.70;;
72087;SDS011;59961;50.232;8.616;2022-12-11T07:19:39;27.17;;;10.53;;
72087;SDS011;59961;50.232;8.616;2022-12-11T07:22:04;25.83;;;10.10;;
72087;SDS011;59961;50.232;8.616;2022-12-11T07:24:29;25.97;;;10.47;;
72087;SDS011;59961;50.232;8.616;2022-12-11T07:26:55;29.75;;;11.43;;
72087;SDS011;59961;50.232;8.616;2022-12-11T07:29:20;25.67;;;10.63;;
72087;SDS011;59961;50.232;8.616;2022-12-11T07:31:45;28.00;;;10.73;;
72087;SDS011;59961;50.232;8.616;2022-12-11T07:34:10;21.45;;;9.85;;
72087;SDS011;59961;50.232;8.616;2022-12-11T07:36:36;23.58;;;9.23;;
72087;SDS011;59961;50.232;8.616;2022-12-11T07:39:01;29.73;;;10.82;;
72087;SDS011;59961;50.232;8.616;2022-12-11T07:41:26;24.80;;;9.77;;
72087;SDS011;59961;50.232;8.616;2022-12-11T07:43:53;24.63;;;9.70;;
72087;SDS011;59961;50.232;8.616;2022-12-11T07:46:19;23.75;;;9.60;;
72087;SDS011;59961;50.232;8.616;2022-12-11T07:48:45;29.42;;;10.15;;
72087;SDS011;59961;50.232;8.616;2022-12-11T07:51:11;22.97;;;9.77;;
72087;SDS011;59961;50.232;8.616;2022-12-11T07:53:38;23.45;;;10.27;;
72087;SDS011;59961;50.232;8.616;2022-12-11T07:56:04;23.80;;;9.47;;
72087;SDS011;59961;50.232;8.616;2022-12-11T07:58:29;25.27;;;10.10;;
72087;SDS011;59961;50.232;8.616;2022-12-11T08:00:54;22.00;;;8.27;;
72087;SDS011;59961;50.232;8.616;2022-12-11T08:03:20;24.67;;;9.73;;
72087;SDS011;59961;50.232;8.616;2022-12-11T08:05:48;29.40;;;10.70;;
72087;SDS011;59961;50.232;8.616;2022-12-11T08:08:14;27.83;;;10.65;;
72087;SDS011;59961;50.232;8.616;2022-12-11T08:10:39;25.63;;;10.23;;
72087;SDS011;59961;50.232;8.616;2022-12-11T08:13:04;29.48;;;10.35;;
72087;SDS011;59961;50.232;8.616;2022-12-11T08:15:29;27.48;;;11.55;;
72087;SDS011;59961;50.232;8.616;2022-12-11T08:17:54;30.33;;;13.30;;
72087;SDS011;59961;50.232;8.616;2022-12-11T08:20:20;31.33;;;12.07;;
72087;SDS011;59961;50.232;8.616;2022-12-11T08:22:45;29.27;;;10.75;;
72087;SDS011;59961;50.232;8.616;2022-12-11T08:25:10;30.45;;;10.73;;
72087;SDS011;59961;50.232;8.616;2022-12-11T08:27:35;28.80;;;11.73;;
72087;SDS011;59961;50.232;8.616;2022-12-11T08:30:00;33.93;;;12.03;;
72087;SDS011;59961;50.232;8.616;2022-12-11T08:32:25;33.72;;;13.23;;
72087;SDS011;59961;50.232;8.616;2022-12-11T08:34:50;33.20;;;13.10;;
72087;SDS011;59961;50.232;8.616;2022-12-11T08:37:16;29.27;;;12.10;;
72087;SDS011;59961;50.232;8.616;2022-12-11T08:39:41;28.58;;;11.40;;
72087;SDS011;59961;50.232;8.616;2022-12-11T08:42:07;32.20;;;12.33;;
72087;SDS011;59961;50.232;8.616;2022-12-11T08:44:32;30.37;;;12.33;;
72087;SDS011;59961;50.232;8.616;2022-12-11T08:46:58;34.33;;;12.55;;
72087;SDS011;59961;50.232;8.616;2022-12-11T08:49:23;31.00;;;12.65;;
72087;SDS011;59961;50.232;8.616;2022-12-11T08:51:48;31.90;;;12.03;;
72087;SDS011;59961;50.232;8.616;2022-12-11T08:54:13;30.50;;;12.15;;
72087;SDS011;59961;50.232;8.616;2022-12-11T08:56:38;30.83;;;11.00;;
72087;SDS011;59961;50.232;8.616;2022-12-11T08:59:03;30.30;;;11.77;;
72087;SDS011;59961;50.232;8.616;2022-12-11T09:01:30;37.45;;;12.30;;
72087;SDS011;59961;50.232;8.616;2022-12-11T09:03:55;35.30;;;12.70;;
72087;SDS011;59961;50.232;8.616;2022-12-11T09:06:22;31.67;;;12.03;;
72087;SDS011;59961;50.232;8.616;2022-12-11T09:08:47;31.08;;;12.30;;
72087;SDS011;59961;50.232;8.616;2022-12-11T09:11:15;29.85;;;12.00;;
72087;SDS011;59961;50.232;8.616;2022-12-11T09:13:40;27.00;;;9.50;;
72087;SDS011;59961;50.232;8.616;2022-12-11T09:16:06;35.58;;;12.98;;
72087;SDS011;59961;50.232;8.616;2022-12-11T09:18:32;29.58;;;12.73;;
72087;SDS011;59961;50.232;8.616;2022-12-11T09:21:00;35.27;;;12.63;;
72087;SDS011;59961;50.232;8.616;2022-12-11T09:23:26;39.73;;;13.23;;
72087;SDS011;59961;50.232;8.616;2022-12-11T09:25:51;26.00;;;11.90;;
72087;SDS011;59961;50.232;8.616;2022-12-11T09:28:16;32.23;;;12.93;;
72087;SDS011;59961;50.232;8.616;2022-12-11T09:30:41;32.60;;;12.57;;
72087;SDS011;59961;50.232;8.616;2022-12-11T09:33:06;39.13;;;13.25;;
72087;SDS011;59961;50.232;8.616;2022-12-11T09:35:31;34.97;;;12.98;;
72087;SDS011;59961;50.232;8.616;2022-12-11T09:37:56;38.40;;;14.60;;
72087;SDS011;59961;50.232;8.616;2022-12-11T09:40:22;41.33;;;15.77;;
72087;SDS011;59961;50.232;8.616;2022-12-11T09:42:55;35.77;;;15.97;;
72087;SDS011;59961;50.232;8.616;2022-12-11T09:45:22;37.72;;;14.18;;
72087;SDS011;59961;50.232;8.616;2022-12-11T09:47:49;40.43;;;20.40;;
72087;SDS011;59961;50.232;8.616;2022-12-11T09:50:19;34.80;;;14.77;;
72087;SDS011;59961;50.232;8.616;2022-12-11T09:55:18;39.45;;;16.60;;
72087;SDS011;59961;50.232;8.616;2022-12-11T10:05:36;35.88;;;13.55;;
72087;SDS011;59961;50.232;8.616;2022-12-11T10:10:44;32.75;;;13.65;;
72087;SDS011;59961;50.232;8.616;2022-12-11T10:18:30;36.20;;;17.42;;
72087;SDS011;59961;50.232;8.616;2022-12-11T10:20:56;40.03;;;15.52;;
72087;SDS011;59961;50.232;8.616;2022-12-11T10:23:26;35.85;;;14.18;;
72087;SDS011;59961;50.232;8.616;2022-12-11T10:25:55;35.23;;;15.80;;
72087;SDS011;59961;50.232;8.616;2022-12-11T10:28:21;41.95;;;16.38;;
72087;SDS011;59961;50.232;8.616;2022-12-11T10:30:48;39.47;;;14.80;;
72087;SDS011;59961;50.232;8.616;2022-12-11T10:33:20;30.70;;;12.55;;
72087;SDS011;59961;50.232;8.616;2022-12-11T10:35:47;34.75;;;14.98;;
72087;SDS011;59961;50.232;8.616;2022-12-11T10:40:39;36.47;;;14.02;;
72087;SDS011;59961;50.232;8.616;2022-12-11T10:43:05;32.87;;;13.93;;
72087;SDS011;59961;50.232;8.616;2022-12-11T10:45:31;36.00;;;14.07;;
72087;SDS011;59961;50.232;8.616;2022-12-11T10:48:03;30.30;;;12.33;;
72087;SDS011;59961;50.232;8.616;2022-12-11T10:50:28;29.85;;;12.00;;
72087;SDS011;59961;50.232;8.616;2022-12-11T10:52:53;30.57;;;12.73;;
72087;SDS011;59961;50.232;8.616;2022-12-11T10:55:42;32.70;;;13.90;;
72087;SDS011;59961;50.232;8.616;2022-12-11T10:58:04;30.92;;;14.43;;
72087;SDS011;59961;50.232;8.616;2022-12-11T11:02:58;30.58;;;13.75;;
72087;SDS011;59961;50.232;8.616;2022-12-11T11:05:28;49.80;;;25.55;;
72087;SDS011;59961;50.232;8.616;2022-12-11T11:08:16;38.63;;;16.20;;
72087;SDS011;59961;50.232;8.616;2022-12-11T11:10:55;29.13;;;12.73;;
72087;SDS011;59961;50.232;8.616;2022-12-11T11:13:22;30.85;;;13.07;;
72087;SDS011;59961;50.232;8.616;2022-12-11T11:15:47;30.73;;;12.73;;
72087;SDS011;59961;50.232;8.616;2022-12-11T11:18:19;30.00;;;13.00;;
72087;SDS011;59961;50.232;8.616;2022-12-11T11:20:46;33.60;;;14.50;;
72087;SDS011;59961;50.232;8.616;2022-12-11T11:23:13;47.63;;;23.57;;
72087;SDS011;59961;50.232;8.616;2022-12-11T11:25:38;36.47;;;15.07;;
72087;SDS011;59961;50.232;8.616;2022-12-11T11:28:05;32.07;;;12.87;;
72087;SDS011;59961;50.232;8.616;2022-12-11T11:30:35;32.45;;;12.02;;
72087;SDS011;59961;50.232;8.616;2022-12-11T11:33:01;37.63;;;17.08;;
72087;SDS011;59961;50.232;8.616;2022-12-11T11:35:29;29.35;;;12.55;;
72087;SDS011;59961;50.232;8.616;2022-12-11T11:40:26;31.30;;;11.70;;
72087;SDS011;59961;50.232;8.616;2022-12-11T11:45:48;27.45;;;10.02;;
72087;SDS011;59961;50.232;8.616;2022-12-11T11:50:44;31.17;;;13.15;;
72087;SDS011;59961;50.232;8.616;2022-12-11T11:53:16;33.80;;;13.83;;
72087;SDS011;59961;50.232;8.616;2022-12-11T11:58:22;33.50;;;15.25;;
72087;SDS011;59961;50.232;8.616;2022-12-11T12:00:54;30.02;;;12.43;;
72087;SDS011;59961;50.232;8.616;2022-12-11T12:03:20;29.02;;;10.82;;
72087;SDS011;59961;50.232;8.616;2022-12-11T12:05:56;30.80;;;11.30;;
72087;SDS011;59961;50.232;8.616;2022-12-11T12:08:31;27.55;;;10.88;;
72087;SDS011;59961;50.232;8.616;2022-12-11T12:13:28;27.15;;;11.00;;
72087;SDS011;59961;50.232;8.616;2022-12-11T12:15:56;30.90;;;12.52;;
72087;SDS011;59961;50.232;8.616;2022-12-11T12:20:56;32.80;;;13.57;;
72087;SDS011;59961;50.232;8.616;2022-12-11T12:23:31;31.33;;;13.77;;
72087;SDS011;59961;50.232;8.616;2022-12-11T12:26:05;29.20;;;11.40;;
72087;SDS011;59961;50.232;8.616;2022-12-11T12:31:00;28.25;;;10.65;;
72087;SDS011;59961;50.232;8.616;2022-12-11T12:33:31;26.58;;;10.68;;
72087;SDS011;59961;50.232;8.616;2022-12-11T12:36:10;25.30;;;10.73;;
72087;SDS011;59961;50.232;8.616;2022-12-11T12:38:41;28.90;;;9.93;;
72087;SDS011;59961;50.232;8.616;2022-12-11T12:41:54;26.50;;;10.93;;
72087;SDS011;59961;50.232;8.616;2022-12-11T12:44:11;29.38;;;9.95;;
72087;SDS011;59961;50.232;8.616;2022-12-11T12:49:27;27.13;;;10.80;;
72087;SDS011;59961;50.232;8.616;2022-12-11T12:51:53;23.40;;;10.45;;
72087;SDS011;59961;50.232;8.616;2022-12-11T12:54:19;23.30;;;10.67;;
72087;SDS011;59961;50.232;8.616;2022-12-11T12:56:44;24.93;;;10.07;;
72087;SDS011;59961;50.232;8.616;2022-12-11T12:59:24;24.40;;;9.73;;
72087;SDS011;59961;50.232;8.616;2022-12-11T13:01:50;22.70;;;7.95;;
72087;SDS011;59961;50.232;8.616;2022-12-11T13:04:26;27.00;;;8.52;;
72087;SDS011;59961;50.232;8.616;2022-12-11T13:06:52;20.20;;;8.20;;
72087;SDS011;59961;50.232;8.616;2022-12-11T13:09:21;23.23;;;8.30;;
72087;SDS011;59961;50.232;8.616;2022-12-11T13:11:48;21.67;;;7.13;;
72087;SDS011;59961;50.232;8.616;2022-12-11T13:16:43;27.65;;;10.13;;
72087;SDS011;59961;50.232;8.616;2022-12-11T13:22:01;31.30;;;11.63;;
72087;SDS011;59961;50.232;8.616;2022-12-11T13:24:28;27.00;;;13.13;;
72087;SDS011;59961;50.232;8.616;2022-12-11T13:26:54;25.73;;;10.50;;
72087;SDS011;59961;50.232;8.616;2022-12-11T13:29:39;23.20;;;8.87;;
72087;SDS011;59961;50.232;8.616;2022-12-11T13:32:28;21.45;;;8.63;;
72087;SDS011;59961;50.232;8.616;2022-12-11T13:34:51;19.73;;;8.02;;
72087;SDS011;59961;50.232;8.616;2022-12-11T13:37:23;23.15;;;7.85;;
72087;SDS011;59961;50.232;8.616;2022-12-11T13:39:49;25.45;;;11.88;;
72087;SDS011;59961;50.232;8.616;2022-12-11T13:42:20;19.37;;;8.30;;
72087;SDS011;59961;50.232;8.616;2022-12-11T13:44:46;25.67;;;8.55;;
72087;SDS011;59961;50.232;8.616;2022-12-11T13:47:13;20.63;;;7.93;;
72087;SDS011;59961;50.232;8.616;2022-12-11T13:49:39;20.90;;;8.55;;
72087;SDS011;59961;50.232;8.616;2022-12-11T13:52:06;27.40;;;8.88;;
72087;SDS011;59961;50.232;8.616;2022-12-11T13:54:32;20.27;;;7.67;;
72087;SDS011;59961;50.232;8.616;2022-12-11T13:57:17;25.42;;;8.98;;
72087;SDS011;59961;50.232;8.616;2022-12-11T13:59:51;21.33;;;8.00;;
72087;SDS011;59961;50.232;8.616;2022-12-11T14:04:46;19.20;;;8.20;;
72087;SDS011;59961;50.232;8.616;2022-12-11T14:07:13;26.55;;;8.93;;
72087;SDS011;59961;50.232;8.616;2022-12-11T14:09:42;23.55;;;8.90;;
72087;SDS011;59961;50.232;8.616;2022-12-11T14:12:13;24.67;;;8.35;;
72087;SDS011;59961;50.232;8.616;2022-12-11T14:14:41;22.85;;;8.25;;
72087;SDS011;59961;50.232;8.616;2022-12-11T14:17:13;24.17;;;8.10;;
72087;SDS011;59961;50.232;8.616;2022-12-11T14:19:39;22.02;;;8.18;;
72087;SDS011;59961;50.232;8.616;2022-12-11T14:22:05;25.75;;;8.57;;
72087;SDS011;59961;50.232;8.616;2022-12-11T14:24:31;22.73;;;8.57;;
72087;SDS011;59961;50.232;8.616;2022-12-11T14:26:57;23.20;;;8.37;;
72087;SDS011;59961;50.232;8.616;2022-12-11T14:29:27;20.83;;;8.27;;
72087;SDS011;59961;50.232;8.616;2022-12-11T14:31:53;20.77;;;7.63;;
72087;SDS011;59961;50.232;8.616;2022-12-11T14:36:47;23.20;;;8.65;;
72087;SDS011;59961;50.232;8.616;2022-12-11T14:39:13;24.87;;;8.73;;
72087;SDS011;59961;50.232;8.616;2022-12-11T14:44:18;25.85;;;8.93;;
72087;SDS011;59961;50.232;8.616;2022-12-11T14:49:20;25.17;;;9.98;;
72087;SDS011;59961;50.232;8.616;2022-12-11T14:51:47;28.53;;;10.13;;
72087;SDS011;59961;50.232;8.616;2022-12-11T14:54:17;27.23;;;10.00;;
72087;SDS011;59961;50.232;8.616;2022-12-11T14:56:44;29.67;;;10.15;;
72087;SDS011;59961;50.232;8.616;2022-12-11T14:59:14;27.73;;;10.70;;
72087;SDS011;59961;50.232;8.616;2022-12-11T15:01:43;27.35;;;8.68;;
72087;SDS011;59961;50.232;8.616;2022-12-11T15:06:43;33.13;;;11.03;;
72087;SDS011;59961;50.232;8.616;2022-12-11T15:11:47;28.65;;;11.32;;
72087;SDS011;59961;50.232;8.616;2022-12-11T15:14:13;27.13;;;9.75;;
72087;SDS011;59961;50.232;8.616;2022-12-11T15:16:40;25.20;;;10.00;;
72087;SDS011;59961;50.232;8.616;2022-12-11T15:19:06;29.43;;;10.77;;
72087;SDS011;59961;50.232;8.616;2022-12-11T15:21:33;28.35;;;11.40;;
72087;SDS011;59961;50.232;8.616;2022-12-11T15:23:59;30.80;;;11.18;;
72087;SDS011;59961;50.232;8.616;2022-12-11T15:28:58;38.55;;;12.20;;
72087;SDS011;59961;50.232;8.616;2022-12-11T15:31:28;28.70;;;11.57;;
72087;SDS011;59961;50.232;8.616;2022-12-11T15:33:54;29.42;;;10.23;;
72087;SDS011;59961;50.232;8.616;2022-12-11T15:36:22;30.57;;;10.37;;
72087;SDS011;59961;50.232;8.616;2022-12-11T15:38:47;34.78;;;11.18;;
72087;SDS011;59961;50.232;8.616;2022-12-11T15:41:16;30.17;;;9.70;;
72087;SDS011;59961;50.232;8.616;2022-12-11T15:43:44;32.17;;;10.17;;
72087;SDS011;59961;50.232;8.616;2022-12-11T15:46:10;33.70;;;10.27;;
72087;SDS011;59961;50.232;8.616;2022-12-11T15:48:35;33.20;;;10.73;;
72087;SDS011;59961;50.232;8.616;2022-12-11T15:51:00;41.75;;;13.38;;
72087;SDS011;59961;50.232;8.616;2022-12-11T15:53:25;41.73;;;11.97;;
72087;SDS011;59961;50.232;8.616;2022-12-11T15:55:50;31.50;;;12.60;;